sensor_id;sensor_type;location;lat;lon;timestamp;P1;durP1;ratioP1;P2;durP2;ratioP2
27161;SDS011;54464;50.558;9.704;2024-02-26T00:00:42;5.10;;;3.70;;
27161;SDS011;54464;50.558;9.704;2024-02-26T00:03:08;5.40;;;3.30;;
27161;SDS011;54464;50.558;9.704;2024-02-26T00:05:34;4.80;;;3.90;;
27161;SDS011;54464;50.558;9.704;2024-02-26T00:07:59;4.90;;;3.87;;
27161;SDS011;54464;50.558;9.704;2024-02-26T00:10:27;6.87;;;5.23;;
27161;SDS011;54464;50.558;9.704;2024-02-26T00:12:53;9.27;;;5.70;;
27161;SDS011;54464;50.558;9.704;2024-02-26T00:15:19;10.37;;;6.07;;
27161;SDS011;54464;50.558;9.704;2024-02-26T00:17:44;10.53;;;6.03;;
27161;SDS011;54464;50.558;9.704;2024-02-26T00:20:10;5.13;;;3.50;;
27161;SDS011;54464;50.558;9.704;2024-02-26T00:22:36;6.67;;;3.43;;
27161;SDS011;54464;50.558;9.704;2024-02-26T00:25:02;5.13;;;3.10;;
27161;SDS011;54464;50.558;9.704;2024-02-26T00:27:31;4.33;;;3.20;;
27161;SDS011;54464;50.558;9.704;2024-02-26T00:29:57;3.70;;;2.97;;
27161;SDS011;54464;50.558;9.704;2024-02-26T00:32:22;4.20;;;3.17;;
27161;SDS011;54464;50.558;9.704;2024-02-26T00:34:53;4.33;;;3.10;;
27161;SDS011;54464;50.558;9.704;2024-02-26T00:37:21;5.23;;;3.20;;
27161;SDS011;54464;50.558;9.704;2024-02-26T00:39:47;5.53;;;3.87;;
27161;SDS011;54464;50.558;9.704;2024-02-26T00:42:14;5.27;;;4.00;;
27161;SDS011;54464;50.558;9.704;2024-02-26T00:44:40;6.37;;;4.20;;
27161;SDS011;54464;50.558;9.704;2024-02-26T00:47:05;7.33;;;4.40;;
27161;SDS011;54464;50.558;9.704;2024-02-26T00:49:31;6.03;;;4.20;;
27161;SDS011;54464;50.558;9.704;2024-02-26T00:51:56;6.53;;;3.90;;
27161;SDS011;54464;50.558;9.704;2024-02-26T00:54:22;10.90;;;5.80;;
27161;SDS011;54464;50.558;9.704;2024-02-26T00:56:48;9.77;;;4.97;;
27161;SDS011;54464;50.558;9.704;2024-02-26T00:59:13;5.30;;;3.60;;
27161;SDS011;54464;50.558;9.704;2024-02-26T01:01:39;4.80;;;3.43;;
27161;SDS011;54464;50.558;9.704;2024-02-26T01:04:04;5.00;;;3.70;;
27161;SDS011;54464;50.558;9.704;2024-02-26T01:06:30;4.83;;;3.50;;
27161;SDS011;54464;50.558;9.704;2024-02-26T01:08:55;5.47;;;3.90;;
27161;SDS011;54464;50.558;9.704;2024-02-26T01:11:21;4.97;;;3.43;;
27161;SDS011;54464;50.558;9.704;2024-02-26T01:13:46;5.77;;;3.90;;
27161;SDS011;54464;50.558;9.704;2024-02-26T01:16:12;5.07;;;3.60;;
27161;SDS011;54464;50.558;9.704;2024-02-26T01:18:38;7.27;;;4.67;;
27161;SDS011;54464;50.558;9.704;2024-02-26T01:21:03;5.43;;;4.70;;
27161;SDS011;54464;50.558;9.704;2024-02-26T01:23:32;8.00;;;4.90;;
27161;SDS011;54464;50.558;9.704;2024-02-26T01:25:57;6.03;;;4.47;;
27161;SDS011;54464;50.558;9.704;2024-02-26T01:28:23;7.40;;;4.47;;
27161;SDS011;54464;50.558;9.704;2024-02-26T01:30:48;5.77;;;4.13;;
27161;SDS011;54464;50.558;9.704;2024-02-26T01:33:14;6.97;;;4.33;;
27161;SDS011;54464;50.558;9.704;2024-02-26T01:35:39;7.97;;;4.10;;
27161;SDS011;54464;50.558;9.704;2024-02-26T01:38:05;6.43;;;3.97;;
27161;SDS011;54464;50.558;9.704;2024-02-26T01:40:30;5.57;;;4.07;;
27161;SDS011;54464;50.558;9.704;2024-02-26T01:42:56;5.83;;;3.50;;
27161;SDS011;54464;50.558;9.704;2024-02-26T01:45:22;5.00;;;3.90;;
27161;SDS011;54464;50.558;9.704;2024-02-26T01:47:50;5.43;;;3.70;;
27161;SDS011;54464;50.558;9.704;2024-02-26T01:50:16;5.23;;;3.63;;
27161;SDS011;54464;50.558;9.704;2024-02-26T01:52:43;6.43;;;3.50;;
27161;SDS011;54464;50.558;9.704;2024-02-26T01:55:11;4.90;;;3.60;;
27161;SDS011;54464;50.558;9.704;2024-02-26T01:57:39;5.83;;;3.70;;
27161;SDS011;54464;50.558;9.704;2024-02-26T02:00:06;4.50;;;3.40;;
27161;SDS011;54464;50.558;9.704;2024-02-26T02:02:32;5.23;;;3.37;;
27161;SDS011;54464;50.558;9.704;2024-02-26T02:04:58;4.10;;;3.37;;
27161;SDS011;54464;50.558;9.704;2024-02-26T02:07:24;3.57;;;2.97;;
27161;SDS011;54464;50.558;9.704;2024-02-26T02:09:50;5.67;;;3.33;;
27161;SDS011;54464;50.558;9.704;2024-02-26T02:12:15;4.43;;;3.40;;
27161;SDS011;54464;50.558;9.704;2024-02-26T02:14:41;5.40;;;3.30;;
27161;SDS011;54464;50.558;9.704;2024-02-26T02:17:06;5.87;;;3.27;;
27161;SDS011;54464;50.558;9.704;2024-02-26T02:19:32;5.37;;;3.10;;
27161;SDS011;54464;50.558;9.704;2024-02-26T02:21:58;3.60;;;3.00;;
27161;SDS011;54464;50.558;9.704;2024-02-26T02:24:23;2.50;;;2.27;;
27161;SDS011;54464;50.558;9.704;2024-02-26T02:26:49;3.43;;;2.70;;
27161;SDS011;54464;50.558;9.704;2024-02-26T02:29:14;3.17;;;2.57;;
27161;SDS011;54464;50.558;9.704;2024-02-26T02:31:40;4.77;;;3.70;;
27161;SDS011;54464;50.558;9.704;2024-02-26T02:34:09;4.60;;;3.53;;
27161;SDS011;54464;50.558;9.704;2024-02-26T02:36:35;4.33;;;3.50;;
27161;SDS011;54464;50.558;9.704;2024-02-26T02:39:12;5.03;;;3.10;;
27161;SDS011;54464;50.558;9.704;2024-02-26T02:41:38;3.77;;;3.37;;
27161;SDS011;54464;50.558;9.704;2024-02-26T02:44:03;3.90;;;3.10;;
27161;SDS011;54464;50.558;9.704;2024-02-26T02:46:29;3.17;;;2.60;;
27161;SDS011;54464;50.558;9.704;2024-02-26T02:48:56;3.53;;;2.77;;
27161;SDS011;54464;50.558;9.704;2024-02-26T02:51:21;5.23;;;3.33;;
27161;SDS011;54464;50.558;9.704;2024-02-26T02:53:47;5.50;;;3.30;;
27161;SDS011;54464;50.558;9.704;2024-02-26T02:56:12;5.33;;;3.53;;
27161;SDS011;54464;50.558;9.704;2024-02-26T02:58:38;4.97;;;3.37;;
27161;SDS011;54464;50.558;9.704;2024-02-26T03:01:04;5.60;;;3.47;;
27161;SDS011;54464;50.558;9.704;2024-02-26T03:03:29;3.80;;;3.20;;
27161;SDS011;54464;50.558;9.704;2024-02-26T03:05:55;4.57;;;3.50;;
27161;SDS011;54464;50.558;9.704;2024-02-26T03:08:21;4.40;;;3.23;;
27161;SDS011;54464;50.558;9.704;2024-02-26T03:10:46;3.50;;;3.20;;
27161;SDS011;54464;50.558;9.704;2024-02-26T03:13:12;3.63;;;2.90;;
27161;SDS011;54464;50.558;9.704;2024-02-26T03:15:38;4.97;;;3.37;;
27161;SDS011;54464;50.558;9.704;2024-02-26T03:18:03;4.77;;;3.33;;
27161;SDS011;54464;50.558;9.704;2024-02-26T03:20:29;5.27;;;3.30;;
27161;SDS011;54464;50.558;9.704;2024-02-26T03:22:54;4.47;;;3.43;;
27161;SDS011;54464;50.558;9.704;2024-02-26T03:25:20;3.63;;;3.30;;
27161;SDS011;54464;50.558;9.704;2024-02-26T03:27:45;5.50;;;3.30;;
27161;SDS011;54464;50.558;9.704;2024-02-26T03:30:11;4.80;;;3.23;;
27161;SDS011;54464;50.558;9.704;2024-02-26T03:32:37;4.07;;;3.63;;
27161;SDS011;54464;50.558;9.704;2024-02-26T03:35:03;4.83;;;3.40;;
27161;SDS011;54464;50.558;9.704;2024-02-26T03:37:29;5.20;;;3.57;;
27161;SDS011;54464;50.558;9.704;2024-02-26T03:39:54;5.20;;;3.07;;
27161;SDS011;54464;50.558;9.704;2024-02-26T03:42:22;3.57;;;3.07;;
27161;SDS011;54464;50.558;9.704;2024-02-26T03:44:47;5.23;;;3.17;;
27161;SDS011;54464;50.558;9.704;2024-02-26T03:47:13;4.43;;;3.40;;
27161;SDS011;54464;50.558;9.704;2024-02-26T03:49:38;5.87;;;3.73;;
27161;SDS011;54464;50.558;9.704;2024-02-26T03:52:04;4.80;;;3.90;;
27161;SDS011;54464;50.558;9.704;2024-02-26T03:54:30;5.23;;;3.37;;
27161;SDS011;54464;50.558;9.704;2024-02-26T03:56:55;5.57;;;3.43;;
27161;SDS011;54464;50.558;9.704;2024-02-26T03:59:21;5.10;;;3.30;;
27161;SDS011;54464;50.558;9.704;2024-02-26T04:01:49;5.43;;;3.40;;
27161;SDS011;54464;50.558;9.704;2024-02-26T04:04:14;5.10;;;3.10;;
27161;SDS011;54464;50.558;9.704;2024-02-26T04:06:43;4.17;;;3.10;;
27161;SDS011;54464;50.558;9.704;2024-02-26T04:09:15;5.07;;;3.50;;
27161;SDS011;54464;50.558;9.704;2024-02-26T04:11:40;5.03;;;3.53;;
27161;SDS011;54464;50.558;9.704;2024-02-26T04:14:08;4.33;;;3.30;;
27161;SDS011;54464;50.558;9.704;2024-02-26T04:16:34;6.27;;;3.37;;
27161;SDS011;54464;50.558;9.704;2024-02-26T04:19:00;6.33;;;3.80;;
27161;SDS011;54464;50.558;9.704;2024-02-26T04:21:26;5.47;;;3.80;;
27161;SDS011;54464;50.558;9.704;2024-02-26T04:23:52;5.53;;;3.37;;
27161;SDS011;54464;50.558;9.704;2024-02-26T04:26:20;3.57;;;3.10;;
27161;SDS011;54464;50.558;9.704;2024-02-26T04:28:46;4.40;;;3.57;;
27161;SDS011;54464;50.558;9.704;2024-02-26T04:31:11;6.27;;;3.53;;
27161;SDS011;54464;50.558;9.704;2024-02-26T04:33:37;3.50;;;2.87;;
27161;SDS011;54464;50.558;9.704;2024-02-26T04:36:03;4.73;;;3.43;;
27161;SDS011;54464;50.558;9.704;2024-02-26T04:38:29;4.53;;;3.23;;
27161;SDS011;54464;50.558;9.704;2024-02-26T04:40:54;5.00;;;3.80;;
27161;SDS011;54464;50.558;9.704;2024-02-26T04:43:20;3.97;;;3.20;;
27161;SDS011;54464;50.558;9.704;2024-02-26T04:45:45;4.37;;;3.33;;
27161;SDS011;54464;50.558;9.704;2024-02-26T04:48:11;4.87;;;3.60;;
27161;SDS011;54464;50.558;9.704;2024-02-26T04:50:39;5.43;;;3.73;;
27161;SDS011;54464;50.558;9.704;2024-02-26T04:53:05;3.57;;;3.27;;
27161;SDS011;54464;50.558;9.704;2024-02-26T04:55:31;5.20;;;3.40;;
27161;SDS011;54464;50.558;9.704;2024-02-26T04:57:57;4.10;;;3.00;;
27161;SDS011;54464;50.558;9.704;2024-02-26T05:00:23;4.50;;;3.23;;
27161;SDS011;54464;50.558;9.704;2024-02-26T05:02:48;5.07;;;3.70;;
27161;SDS011;54464;50.558;9.704;2024-02-26T05:05:14;5.30;;;3.20;;
27161;SDS011;54464;50.558;9.704;2024-02-26T05:07:42;3.63;;;3.03;;
27161;SDS011;54464;50.558;9.704;2024-02-26T05:10:08;2.87;;;2.20;;
27161;SDS011;54464;50.558;9.704;2024-02-26T05:12:34;3.23;;;2.10;;
27161;SDS011;54464;50.558;9.704;2024-02-26T05:15:01;2.47;;;1.80;;
27161;SDS011;54464;50.558;9.704;2024-02-26T05:17:27;3.00;;;2.10;;
27161;SDS011;54464;50.558;9.704;2024-02-26T05:19:53;3.13;;;1.97;;
27161;SDS011;54464;50.558;9.704;2024-02-26T05:22:18;2.50;;;2.10;;
27161;SDS011;54464;50.558;9.704;2024-02-26T05:24:44;3.57;;;2.60;;
27161;SDS011;54464;50.558;9.704;2024-02-26T05:27:09;5.50;;;3.83;;
27161;SDS011;54464;50.558;9.704;2024-02-26T05:29:35;5.90;;;3.80;;
27161;SDS011;54464;50.558;9.704;2024-02-26T05:32:01;5.50;;;3.97;;
27161;SDS011;54464;50.558;9.704;2024-02-26T05:34:29;4.23;;;3.20;;
27161;SDS011;54464;50.558;9.704;2024-02-26T05:36:55;7.40;;;4.60;;
27161;SDS011;54464;50.558;9.704;2024-02-26T05:39:20;5.43;;;4.30;;
27161;SDS011;54464;50.558;9.704;2024-02-26T05:41:46;6.13;;;3.83;;
27161;SDS011;54464;50.558;9.704;2024-02-26T05:44:12;5.10;;;4.50;;
27161;SDS011;54464;50.558;9.704;2024-02-26T05:46:38;4.77;;;3.90;;
27161;SDS011;54464;50.558;9.704;2024-02-26T05:49:03;4.07;;;3.70;;
27161;SDS011;54464;50.558;9.704;2024-02-26T05:51:29;5.03;;;4.10;;
27161;SDS011;54464;50.558;9.704;2024-02-26T05:53:54;6.03;;;3.97;;
27161;SDS011;54464;50.558;9.704;2024-02-26T05:56:21;4.93;;;3.80;;
27161;SDS011;54464;50.558;9.704;2024-02-26T05:58:47;6.37;;;4.23;;
27161;SDS011;54464;50.558;9.704;2024-02-26T06:01:13;5.17;;;4.00;;
27161;SDS011;54464;50.558;9.704;2024-02-26T06:03:40;5.37;;;4.07;;
27161;SDS011;54464;50.558;9.704;2024-02-26T06:06:06;6.00;;;4.23;;
27161;SDS011;54464;50.558;9.704;2024-02-26T06:08:31;5.70;;;3.97;;
27161;SDS011;54464;50.558;9.704;2024-02-26T06:10:57;5.23;;;4.10;;
27161;SDS011;54464;50.558;9.704;2024-02-26T06:13:22;5.13;;;4.03;;
27161;SDS011;54464;50.558;9.704;2024-02-26T06:15:48;6.20;;;4.17;;
27161;SDS011;54464;50.558;9.704;2024-02-26T06:18:14;5.93;;;3.90;;
27161;SDS011;54464;50.558;9.704;2024-02-26T06:20:39;5.43;;;3.93;;
27161;SDS011;54464;50.558;9.704;2024-02-26T06:23:05;5.07;;;3.63;;
27161;SDS011;54464;50.558;9.704;2024-02-26T06:25:30;6.10;;;4.20;;
27161;SDS011;54464;50.558;9.704;2024-02-26T06:27:56;7.03;;;4.40;;
27161;SDS011;54464;50.558;9.704;2024-02-26T06:30:21;4.37;;;3.80;;
27161;SDS011;54464;50.558;9.704;2024-02-26T06:32:47;5.43;;;4.03;;
27161;SDS011;54464;50.558;9.704;2024-02-26T06:35:12;7.30;;;4.23;;
27161;SDS011;54464;50.558;9.704;2024-02-26T06:37:38;6.27;;;4.00;;
27161;SDS011;54464;50.558;9.704;2024-02-26T06:40:04;7.03;;;4.17;;
27161;SDS011;54464;50.558;9.704;2024-02-26T06:42:31;7.13;;;4.00;;
27161;SDS011;54464;50.558;9.704;2024-02-26T06:44:57;5.50;;;3.73;;
27161;SDS011;54464;50.558;9.704;2024-02-26T06:47:23;5.17;;;3.33;;
27161;SDS011;54464;50.558;9.704;2024-02-26T06:49:48;6.60;;;3.90;;
27161;SDS011;54464;50.558;9.704;2024-02-26T06:52:14;6.60;;;3.90;;
27161;SDS011;54464;50.558;9.704;2024-02-26T06:54:39;4.80;;;3.60;;
27161;SDS011;54464;50.558;9.704;2024-02-26T06:57:05;4.50;;;3.50;;
27161;SDS011;54464;50.558;9.704;2024-02-26T06:59:31;5.17;;;3.50;;
27161;SDS011;54464;50.558;9.704;2024-02-26T07:01:56;4.93;;;3.70;;
27161;SDS011;54464;50.558;9.704;2024-02-26T07:04:22;4.53;;;3.50;;
27161;SDS011;54464;50.558;9.704;2024-02-26T07:06:47;4.27;;;3.40;;
27161;SDS011;54464;50.558;9.704;2024-02-26T07:09:13;5.40;;;3.27;;
27161;SDS011;54464;50.558;9.704;2024-02-26T07:11:39;4.10;;;3.23;;
27161;SDS011;54464;50.558;9.704;2024-02-26T07:14:11;4.53;;;3.40;;
27161;SDS011;54464;50.558;9.704;2024-02-26T07:16:37;5.37;;;3.77;;
27161;SDS011;54464;50.558;9.704;2024-02-26T07:19:03;6.27;;;3.40;;
27161;SDS011;54464;50.558;9.704;2024-02-26T07:21:29;4.90;;;3.70;;
27161;SDS011;54464;50.558;9.704;2024-02-26T07:23:55;5.93;;;3.60;;
27161;SDS011;54464;50.558;9.704;2024-02-26T07:26:20;5.17;;;3.67;;
27161;SDS011;54464;50.558;9.704;2024-02-26T07:28:46;4.87;;;3.50;;
27161;SDS011;54464;50.558;9.704;2024-02-26T07:31:12;4.63;;;3.50;;
27161;SDS011;54464;50.558;9.704;2024-02-26T07:33:38;4.07;;;3.63;;
27161;SDS011;54464;50.558;9.704;2024-02-26T07:36:03;3.73;;;3.20;;
27161;SDS011;54464;50.558;9.704;2024-02-26T07:38:29;4.57;;;2.80;;
27161;SDS011;54464;50.558;9.704;2024-02-26T07:40:54;4.93;;;3.13;;
27161;SDS011;54464;50.558;9.704;2024-02-26T07:43:21;5.00;;;3.07;;
27161;SDS011;54464;50.558;9.704;2024-02-26T07:45:47;3.87;;;2.80;;
27161;SDS011;54464;50.558;9.704;2024-02-26T07:48:13;3.53;;;2.80;;
27161;SDS011;54464;50.558;9.704;2024-02-26T07:50:38;3.17;;;2.73;;
27161;SDS011;54464;50.558;9.704;2024-02-26T07:53:05;3.00;;;2.70;;
27161;SDS011;54464;50.558;9.704;2024-02-26T07:55:31;3.83;;;2.80;;
27161;SDS011;54464;50.558;9.704;2024-02-26T07:57:56;4.47;;;2.97;;
27161;SDS011;54464;50.558;9.704;2024-02-26T08:00:22;3.20;;;2.50;;
27161;SDS011;54464;50.558;9.704;2024-02-26T08:02:47;5.17;;;2.70;;
27161;SDS011;54464;50.558;9.704;2024-02-26T08:05:13;3.40;;;2.43;;
27161;SDS011;54464;50.558;9.704;2024-02-26T08:07:39;4.33;;;3.03;;
27161;SDS011;54464;50.558;9.704;2024-02-26T08:10:05;3.17;;;2.87;;
27161;SDS011;54464;50.558;9.704;2024-02-26T08:12:30;3.47;;;2.70;;
27161;SDS011;54464;50.558;9.704;2024-02-26T08:14:56;4.63;;;2.80;;
27161;SDS011;54464;50.558;9.704;2024-02-26T08:17:23;3.20;;;2.77;;
27161;SDS011;54464;50.558;9.704;2024-02-26T08:19:48;3.60;;;2.80;;
27161;SDS011;54464;50.558;9.704;2024-02-26T08:22:14;4.80;;;3.50;;
27161;SDS011;54464;50.558;9.704;2024-02-26T08:24:43;8.90;;;5.87;;
27161;SDS011;54464;50.558;9.704;2024-02-26T08:27:08;5.73;;;4.27;;
27161;SDS011;54464;50.558;9.704;2024-02-26T08:29:34;4.73;;;3.63;;
27161;SDS011;54464;50.558;9.704;2024-02-26T08:32:00;5.87;;;3.53;;
27161;SDS011;54464;50.558;9.704;2024-02-26T08:34:26;6.80;;;3.50;;
27161;SDS011;54464;50.558;9.704;2024-02-26T08:36:51;5.93;;;3.30;;
27161;SDS011;54464;50.558;9.704;2024-02-26T08:39:17;10.37;;;5.90;;
27161;SDS011;54464;50.558;9.704;2024-02-26T08:41:43;5.47;;;3.80;;
27161;SDS011;54464;50.558;9.704;2024-02-26T08:44:09;5.20;;;3.97;;
27161;SDS011;54464;50.558;9.704;2024-02-26T08:46:35;6.80;;;3.77;;
27161;SDS011;54464;50.558;9.704;2024-02-26T08:49:00;5.73;;;3.63;;
27161;SDS011;54464;50.558;9.704;2024-02-26T08:51:26;5.60;;;3.90;;
27161;SDS011;54464;50.558;9.704;2024-02-26T08:53:52;5.70;;;3.77;;
27161;SDS011;54464;50.558;9.704;2024-02-26T08:56:18;6.10;;;4.17;;
27161;SDS011;54464;50.558;9.704;2024-02-26T08:58:46;13.50;;;7.53;;
27161;SDS011;54464;50.558;9.704;2024-02-26T09:01:13;22.67;;;11.57;;
27161;SDS011;54464;50.558;9.704;2024-02-26T09:03:39;12.00;;;7.47;;
27161;SDS011;54464;50.558;9.704;2024-02-26T09:06:05;17.60;;;9.90;;
27161;SDS011;54464;50.558;9.704;2024-02-26T09:08:31;9.23;;;4.90;;
27161;SDS011;54464;50.558;9.704;2024-02-26T09:10:57;5.83;;;4.10;;
27161;SDS011;54464;50.558;9.704;2024-02-26T09:13:23;5.47;;;3.80;;
27161;SDS011;54464;50.558;9.704;2024-02-26T09:15:48;5.47;;;3.60;;
27161;SDS011;54464;50.558;9.704;2024-02-26T09:18:14;5.47;;;3.70;;
27161;SDS011;54464;50.558;9.704;2024-02-26T09:20:40;4.37;;;3.13;;
27161;SDS011;54464;50.558;9.704;2024-02-26T09:23:06;4.80;;;3.50;;
27161;SDS011;54464;50.558;9.704;2024-02-26T09:25:31;5.17;;;3.40;;
27161;SDS011;54464;50.558;9.704;2024-02-26T09:27:58;4.83;;;3.60;;
27161;SDS011;54464;50.558;9.704;2024-02-26T09:30:24;6.20;;;3.50;;
27161;SDS011;54464;50.558;9.704;2024-02-26T09:32:50;4.30;;;3.43;;
27161;SDS011;54464;50.558;9.704;2024-02-26T09:35:16;5.10;;;3.37;;
27161;SDS011;54464;50.558;9.704;2024-02-26T09:37:41;4.57;;;3.67;;
27161;SDS011;54464;50.558;9.704;2024-02-26T09:40:08;5.00;;;3.70;;
27161;SDS011;54464;50.558;9.704;2024-02-26T09:42:37;4.90;;;3.60;;
27161;SDS011;54464;50.558;9.704;2024-02-26T09:45:06;3.83;;;3.23;;
27161;SDS011;54464;50.558;9.704;2024-02-26T09:47:37;4.07;;;3.47;;
27161;SDS011;54464;50.558;9.704;2024-02-26T09:50:04;4.93;;;3.50;;
27161;SDS011;54464;50.558;9.704;2024-02-26T09:52:34;4.60;;;3.43;;
27161;SDS011;54464;50.558;9.704;2024-02-26T09:55:02;5.27;;;3.40;;
27161;SDS011;54464;50.558;9.704;2024-02-26T09:57:29;4.30;;;3.30;;
27161;SDS011;54464;50.558;9.704;2024-02-26T09:59:56;5.13;;;3.63;;
27161;SDS011;54464;50.558;9.704;2024-02-26T10:02:28;5.57;;;3.50;;
27161;SDS011;54464;50.558;9.704;2024-02-26T10:04:56;6.10;;;3.80;;
27161;SDS011;54464;50.558;9.704;2024-02-26T10:07:26;6.00;;;3.90;;
27161;SDS011;54464;50.558;9.704;2024-02-26T10:09:54;5.57;;;4.00;;
27161;SDS011;54464;50.558;9.704;2024-02-26T10:12:20;8.10;;;4.10;;
27161;SDS011;54464;50.558;9.704;2024-02-26T10:14:48;4.90;;;3.97;;
27161;SDS011;54464;50.558;9.704;2024-02-26T10:17:13;5.23;;;4.07;;
27161;SDS011;54464;50.558;9.704;2024-02-26T10:19:40;6.13;;;4.57;;
27161;SDS011;54464;50.558;9.704;2024-02-26T10:22:05;7.20;;;4.60;;
27161;SDS011;54464;50.558;9.704;2024-02-26T10:24:31;5.73;;;4.27;;
27161;SDS011;54464;50.558;9.704;2024-02-26T10:26:57;8.63;;;4.27;;
27161;SDS011;54464;50.558;9.704;2024-02-26T10:29:25;6.57;;;4.30;;
27161;SDS011;54464;50.558;9.704;2024-02-26T10:31:51;4.40;;;3.53;;
27161;SDS011;54464;50.558;9.704;2024-02-26T10:34:17;5.97;;;4.23;;
27161;SDS011;54464;50.558;9.704;2024-02-26T10:36:43;6.33;;;3.67;;
27161;SDS011;54464;50.558;9.704;2024-02-26T10:39:09;6.93;;;4.60;;
27161;SDS011;54464;50.558;9.704;2024-02-26T10:41:37;5.90;;;4.33;;
27161;SDS011;54464;50.558;9.704;2024-02-26T10:44:03;7.17;;;4.10;;
27161;SDS011;54464;50.558;9.704;2024-02-26T10:46:29;5.63;;;4.07;;
27161;SDS011;54464;50.558;9.704;2024-02-26T10:48:54;9.10;;;6.50;;
27161;SDS011;54464;50.558;9.704;2024-02-26T10:51:27;5.47;;;4.40;;
27161;SDS011;54464;50.558;9.704;2024-02-26T10:53:55;4.13;;;3.40;;
27161;SDS011;54464;50.558;9.704;2024-02-26T10:56:26;5.40;;;3.40;;
27161;SDS011;54464;50.558;9.704;2024-02-26T10:58:53;4.30;;;3.73;;
27161;SDS011;54464;50.558;9.704;2024-02-26T11:01:20;5.07;;;3.53;;
27161;SDS011;54464;50.558;9.704;2024-02-26T11:03:51;5.10;;;3.63;;
27161;SDS011;54464;50.558;9.704;2024-02-26T11:06:21;4.30;;;3.47;;
27161;SDS011;54464;50.558;9.704;2024-02-26T11:08:50;5.17;;;3.80;;
27161;SDS011;54464;50.558;9.704;2024-02-26T11:11:19;4.70;;;3.40;;
27161;SDS011;54464;50.558;9.704;2024-02-26T11:13:46;4.60;;;3.43;;
27161;SDS011;54464;50.558;9.704;2024-02-26T11:16:20;4.87;;;3.20;;
27161;SDS011;54464;50.558;9.704;2024-02-26T11:18:47;3.53;;;3.10;;
27161;SDS011;54464;50.558;9.704;2024-02-26T11:21:16;4.20;;;3.37;;
27161;SDS011;54464;50.558;9.704;2024-02-26T11:23:52;4.37;;;3.20;;
27161;SDS011;54464;50.558;9.704;2024-02-26T11:26:18;3.13;;;2.70;;
27161;SDS011;54464;50.558;9.704;2024-02-26T11:28:46;4.03;;;2.90;;
27161;SDS011;54464;50.558;9.704;2024-02-26T11:31:13;4.10;;;2.80;;
27161;SDS011;54464;50.558;9.704;2024-02-26T11:33:39;3.67;;;2.80;;
27161;SDS011;54464;50.558;9.704;2024-02-26T11:36:08;4.27;;;3.30;;
27161;SDS011;54464;50.558;9.704;2024-02-26T11:38:35;3.77;;;2.70;;
27161;SDS011;54464;50.558;9.704;2024-02-26T11:41:01;3.47;;;3.00;;
27161;SDS011;54464;50.558;9.704;2024-02-26T11:49:00;3.60;;;2.90;;
27161;SDS011;54464;50.558;9.704;2024-02-26T11:51:28;4.17;;;2.80;;
27161;SDS011;54464;50.558;9.704;2024-02-26T11:53:57;3.50;;;2.90;;
27161;SDS011;54464;50.558;9.704;2024-02-26T11:56:23;4.47;;;3.00;;
27161;SDS011;54464;50.558;9.704;2024-02-26T12:02:02;4.90;;;3.10;;
27161;SDS011;54464;50.558;9.704;2024-02-26T12:04:30;3.57;;;2.77;;
27161;SDS011;54464;50.558;9.704;2024-02-26T12:06:57;3.73;;;2.70;;
27161;SDS011;54464;50.558;9.704;2024-02-26T12:09:41;3.83;;;3.10;;
27161;SDS011;54464;50.558;9.704;2024-02-26T12:12:08;4.57;;;3.20;;
27161;SDS011;54464;50.558;9.704;2024-02-26T12:14:52;5.90;;;3.60;;
27161;SDS011;54464;50.558;9.704;2024-02-26T12:17:20;5.63;;;3.47;;
27161;SDS011;54464;50.558;9.704;2024-02-26T12:19:47;5.60;;;3.87;;
27161;SDS011;54464;50.558;9.704;2024-02-26T12:22:13;4.90;;;3.60;;
27161;SDS011;54464;50.558;9.704;2024-02-26T12:24:40;5.43;;;3.80;;
27161;SDS011;54464;50.558;9.704;2024-02-26T12:27:08;4.27;;;3.30;;
27161;SDS011;54464;50.558;9.704;2024-02-26T12:29:34;6.03;;;3.53;;
27161;SDS011;54464;50.558;9.704;2024-02-26T12:31:59;4.20;;;3.20;;
27161;SDS011;54464;50.558;9.704;2024-02-26T12:34:25;5.33;;;3.53;;
27161;SDS011;54464;50.558;9.704;2024-02-26T12:36:53;4.60;;;3.67;;
27161;SDS011;54464;50.558;9.704;2024-02-26T12:39:19;5.53;;;3.70;;
27161;SDS011;54464;50.558;9.704;2024-02-26T12:41:45;4.63;;;3.17;;
27161;SDS011;54464;50.558;9.704;2024-02-26T12:44:16;3.87;;;2.60;;
27161;SDS011;54464;50.558;9.704;2024-02-26T12:46:42;2.83;;;2.47;;
27161;SDS011;54464;50.558;9.704;2024-02-26T12:49:07;4.40;;;2.60;;
27161;SDS011;54464;50.558;9.704;2024-02-26T12:51:33;3.40;;;3.03;;
27161;SDS011;54464;50.558;9.704;2024-02-26T12:53:59;3.97;;;3.10;;
27161;SDS011;54464;50.558;9.704;2024-02-26T12:56:26;4.00;;;2.80;;
27161;SDS011;54464;50.558;9.704;2024-02-26T12:58:53;3.30;;;2.80;;
27161;SDS011;54464;50.558;9.704;2024-02-26T13:01:20;3.57;;;2.70;;
27161;SDS011;54464;50.558;9.704;2024-02-26T13:03:48;5.43;;;2.70;;
27161;SDS011;54464;50.558;9.704;2024-02-26T13:06:15;4.60;;;2.90;;
27161;SDS011;54464;50.558;9.704;2024-02-26T13:08:45;4.07;;;2.40;;
27161;SDS011;54464;50.558;9.704;2024-02-26T13:11:11;3.33;;;2.60;;
27161;SDS011;54464;50.558;9.704;2024-02-26T13:13:37;3.60;;;2.80;;
27161;SDS011;54464;50.558;9.704;2024-02-26T13:16:04;5.50;;;3.10;;
27161;SDS011;54464;50.558;9.704;2024-02-26T13:18:34;3.27;;;2.40;;
27161;SDS011;54464;50.558;9.704;2024-02-26T13:21:11;3.53;;;2.73;;
27161;SDS011;54464;50.558;9.704;2024-02-26T13:23:39;3.60;;;2.63;;
27161;SDS011;54464;50.558;9.704;2024-02-26T13:26:05;3.03;;;2.37;;
27161;SDS011;54464;50.558;9.704;2024-02-26T13:28:31;3.70;;;2.50;;
27161;SDS011;54464;50.558;9.704;2024-02-26T13:30:58;3.63;;;2.70;;
27161;SDS011;54464;50.558;9.704;2024-02-26T13:33:25;2.80;;;2.50;;
27161;SDS011;54464;50.558;9.704;2024-02-26T13:35:54;3.07;;;2.37;;
27161;SDS011;54464;50.558;9.704;2024-02-26T13:38:21;3.20;;;2.40;;
27161;SDS011;54464;50.558;9.704;2024-02-26T13:40:47;3.03;;;2.13;;
27161;SDS011;54464;50.558;9.704;2024-02-26T13:43:13;2.63;;;2.27;;
27161;SDS011;54464;50.558;9.704;2024-02-26T13:45:38;4.27;;;2.43;;
27161;SDS011;54464;50.558;9.704;2024-02-26T13:48:05;2.90;;;2.13;;
27161;SDS011;54464;50.558;9.704;2024-02-26T13:50:31;2.13;;;1.93;;
27161;SDS011;54464;50.558;9.704;2024-02-26T13:52:57;2.80;;;2.10;;
27161;SDS011;54464;50.558;9.704;2024-02-26T13:55:25;2.50;;;1.80;;
27161;SDS011;54464;50.558;9.704;2024-02-26T13:57:54;2.83;;;1.90;;
27161;SDS011;54464;50.558;9.704;2024-02-26T14:00:21;2.47;;;1.90;;
27161;SDS011;54464;50.558;9.704;2024-02-26T14:02:47;2.40;;;2.00;;
27161;SDS011;54464;50.558;9.704;2024-02-26T14:05:13;2.40;;;1.70;;
27161;SDS011;54464;50.558;9.704;2024-02-26T14:07:38;3.83;;;2.00;;
27161;SDS011;54464;50.558;9.704;2024-02-26T14:10:04;2.10;;;1.70;;
27161;SDS011;54464;50.558;9.704;2024-02-26T14:12:30;2.43;;;2.10;;
27161;SDS011;54464;50.558;9.704;2024-02-26T14:14:56;2.60;;;1.93;;
27161;SDS011;54464;50.558;9.704;2024-02-26T14:17:23;2.30;;;1.80;;
27161;SDS011;54464;50.558;9.704;2024-02-26T14:19:49;2.60;;;1.83;;
27161;SDS011;54464;50.558;9.704;2024-02-26T14:22:15;2.83;;;2.00;;
27161;SDS011;54464;50.558;9.704;2024-02-26T14:24:41;2.97;;;2.00;;
27161;SDS011;54464;50.558;9.704;2024-02-26T14:27:10;2.97;;;1.93;;
27161;SDS011;54464;50.558;9.704;2024-02-26T14:29:41;3.20;;;2.10;;
27161;SDS011;54464;50.558;9.704;2024-02-26T14:32:08;2.77;;;2.10;;
27161;SDS011;54464;50.558;9.704;2024-02-26T14:34:34;3.97;;;2.10;;
27161;SDS011;54464;50.558;9.704;2024-02-26T14:37:00;2.40;;;2.00;;
27161;SDS011;54464;50.558;9.704;2024-02-26T14:39:26;3.37;;;2.23;;
27161;SDS011;54464;50.558;9.704;2024-02-26T14:41:51;2.20;;;2.00;;
27161;SDS011;54464;50.558;9.704;2024-02-26T14:44:17;3.60;;;2.27;;
27161;SDS011;54464;50.558;9.704;2024-02-26T14:46:42;3.40;;;2.20;;
27161;SDS011;54464;50.558;9.704;2024-02-26T14:49:08;2.63;;;2.20;;
27161;SDS011;54464;50.558;9.704;2024-02-26T14:51:34;3.27;;;2.57;;